Time;durP1;ratioP1;P1;durP2;ratioP2;P2;SDS_P1;SDS_P2;PMS_P1;PMS_P2;Temp;Humidity;BMP_temperature;BMP_pressure;BME280_temperature;BME280_humidity;BME280_pressure;Samples;Min_cycle;Max_cycle;Signal;HPM_P1;HPM_P2
2022/05/17 00:02:12;;;;;;;13.85;4.20;;;15.80;99.90;;;;;;4981880;28;20062;-49
2022/05/17 00:04:37;;;;;;;8.32;3.85;;;15.70;99.90;;;;;;4988320;28;20045;-50
2022/05/17 00:07:04;;;;;;;11.60;3.75;;;15.70;99.90;;;;;;4970498;28;20030;-47
2022/05/17 00:09:31;;;;;;;10.18;3.38;;;15.70;99.90;;;;;;4982227;28;20042;-47
2022/05/17 00:11:57;;;;;;;10.32;3.28;;;15.60;99.90;;;;;;4984267;28;20068;-47
2022/05/17 00:14:23;;;;;;;7.25;3.05;;;15.60;99.90;;;;;;4988539;28;20506;-49
2022/05/17 00:16:49;;;;;;;11.88;3.22;;;15.60;99.90;;;;;;4987803;28;20709;-48
2022/05/17 00:19:19;;;;;;;8.13;3.42;;;15.50;99.90;;;;;;4984062;28;20506;-48
2022/05/17 00:21:46;;;;;;;7.95;3.15;;;15.40;99.90;;;;;;4988057;28;20042;-48
2022/05/17 00:24:13;;;;;;;11.77;4.70;;;15.40;99.90;;;;;;4970645;28;20045;-50
2022/05/17 00:26:39;;;;;;;10.52;3.90;;;15.30;99.90;;;;;;4968207;28;20129;-50
2022/05/17 00:29:05;;;;;;;6.82;3.80;;;15.30;99.90;;;;;;4985395;28;20130;-47
2022/05/17 00:31:33;;;;;;;7.07;3.13;;;15.20;99.90;;;;;;4986931;28;20054;-50
2022/05/17 00:33:59;;;;;;;7.45;3.22;;;15.20;99.90;;;;;;4990289;28;20042;-50
2022/05/17 00:36:24;;;;;;;15.60;3.88;;;15.20;99.90;;;;;;4988312;28;20045;-48
2022/05/17 00:38:50;;;;;;;8.73;3.83;;;15.20;99.90;;;;;;4989917;28;20034;-49
2022/05/17 00:41:16;;;;;;;8.13;2.97;;;15.10;99.90;;;;;;4986821;28;20041;-50
2022/05/17 00:46:48;;;;;;;10.18;3.47;;;15.10;99.90;;;;;;4984675;28;20051;-51
2022/05/17 00:49:33;;;;;;;9.77;4.18;;;15.10;99.90;;;;;;4969779;28;20547;-51
2022/05/17 00:52:04;;;;;;;11.75;3.38;;;15.00;99.90;;;;;;4986850;28;20030;-52
2022/05/17 00:54:31;;;;;;;11.93;4.28;;;15.00;99.90;;;;;;4986287;28;20112;-48
2022/05/17 00:57:06;;;;;;;11.48;3.67;;;15.00;99.90;;;;;;4988147;28;20089;-49
2022/05/17 00:59:33;;;;;;;7.63;3.50;;;14.90;99.90;;;;;;4988673;28;20138;-51
2022/05/17 01:01:59;;;;;;;7.55;3.78;;;14.90;99.90;;;;;;4987109;28;20065;-48
2022/05/17 01:04:26;;;;;;;11.32;3.22;;;14.90;99.90;;;;;;4989274;28;20166;-49
2022/05/17 01:06:58;;;;;;;11.90;4.40;;;14.80;99.90;;;;;;4986741;28;20371;-50
2022/05/17 01:09:24;;;;;;;9.25;4.15;;;14.80;99.90;;;;;;4987499;28;20054;-50
2022/05/17 01:11:49;;;;;;;7.57;3.13;;;14.80;99.90;;;;;;4964108;28;20034;-51
2022/05/17 01:17:00;;;;;;;8.23;3.72;;;14.80;99.90;;;;;;4963972;28;20137;-47
2022/05/17 01:19:26;;;;;;;10.55;4.07;;;14.80;99.90;;;;;;4985858;28;20562;-47
2022/05/17 01:21:52;;;;;;;7.68;3.47;;;14.80;99.90;;;;;;4988093;28;20056;-49
2022/05/17 01:24:18;;;;;;;11.27;3.42;;;14.80;99.90;;;;;;4971592;28;20125;-50
2022/05/17 01:26:49;;;;;;;12.50;3.85;;;14.70;99.90;;;;;;4984779;28;20038;-51
2022/05/17 01:29:15;;;;;;;13.05;3.85;;;14.60;99.90;;;;;;4987399;28;20042;-45
2022/05/17 01:31:41;;;;;;;11.23;3.75;;;14.60;99.90;;;;;;4984926;28;20038;-51
2022/05/17 01:34:08;;;;;;;9.48;4.32;;;14.50;99.90;;;;;;4969160;28;20061;-51
2022/05/17 01:36:34;;;;;;;10.70;4.07;;;14.50;99.90;;;;;;4983957;28;20038;-49
2022/05/17 01:39:00;;;;;;;11.57;3.72;;;14.40;99.90;;;;;;4987669;28;20042;-47
2022/05/17 01:41:26;;;;;;;10.88;3.20;;;14.40;99.90;;;;;;4948062;28;20121;-48
2022/05/17 01:43:53;;;;;;;11.27;3.47;;;14.40;99.90;;;;;;4987421;28;20120;-50
2022/05/17 01:46:19;;;;;;;8.23;2.88;;;14.30;99.90;;;;;;4986696;28;20046;-50
2022/05/17 01:48:45;;;;;;;9.02;3.42;;;14.30;99.90;;;;;;4987198;28;20038;-49
2022/05/17 01:51:11;;;;;;;8.75;3.63;;;14.30;99.90;;;;;;4979871;28;20074;-48
2022/05/17 01:53:37;;;;;;;9.23;4.78;;;14.20;99.90;;;;;;4986470;28;20173;-49
2022/05/17 01:56:04;;;;;;;11.23;4.00;;;14.10;99.90;;;;;;4988389;28;20066;-49
2022/05/17 01:58:30;;;;;;;10.63;4.15;;;14.00;99.90;;;;;;4993132;28;20571;-53
2022/05/17 02:00:55;;;;;;;11.63;4.15;;;14.00;99.90;;;;;;4989004;28;20129;-47
2022/05/17 02:03:21;;;;;;;13.43;3.35;;;13.90;99.90;;;;;;4957161;28;20086;-50
2022/05/17 02:05:47;;;;;;;10.80;4.65;;;13.90;99.90;;;;;;4991593;28;20034;-50
2022/05/17 02:08:13;;;;;;;8.63;3.38;;;13.90;99.90;;;;;;4991908;28;20500;-51
2022/05/17 02:10:38;;;;;;;9.45;3.30;;;13.90;99.90;;;;;;4987804;28;20416;-50
2022/05/17 02:13:04;;;;;;;9.13;3.30;;;13.90;99.90;;;;;;4991462;28;20093;-48
2022/05/17 02:15:30;;;;;;;10.32;4.00;;;13.90;99.90;;;;;;4989750;28;20038;-41
2022/05/17 02:17:57;;;;;;;14.73;4.50;;;13.90;99.90;;;;;;4985575;28;20092;-48
2022/05/17 02:20:23;;;;;;;6.95;3.30;;;13.90;99.90;;;;;;4988536;28;20088;-50
2022/05/17 02:22:48;;;;;;;9.77;4.10;;;13.90;99.90;;;;;;4992909;28;20046;-50
2022/05/17 02:25:15;;;;;;;9.35;3.92;;;13.90;99.90;;;;;;4970920;28;20120;-50
2022/05/17 02:27:40;;;;;;;8.73;4.03;;;13.90;99.90;;;;;;4975544;28;20463;-50
2022/05/17 02:30:09;;;;;;;9.98;4.20;;;13.90;99.90;;;;;;4987154;28;20060;-46
2022/05/17 02:32:35;;;;;;;8.43;3.30;;;13.90;99.90;;;;;;4991717;28;20042;-47
2022/05/17 02:35:01;;;;;;;12.63;4.45;;;13.80;99.90;;;;;;4990278;28;20514;-47
2022/05/17 02:37:27;;;;;;;8.18;3.90;;;13.90;99.90;;;;;;4991859;28;20108;-51
2022/05/17 02:39:53;;;;;;;9.65;3.78;;;13.80;99.90;;;;;;4959445;28;20046;-51
2022/05/17 02:42:19;;;;;;;5.80;3.38;;;13.80;99.90;;;;;;4988130;28;20030;-48
2022/05/17 02:44:45;;;;;;;12.25;4.45;;;13.70;99.90;;;;;;4988837;28;20073;-50
2022/05/17 02:47:11;;;;;;;11.13;3.58;;;13.70;99.90;;;;;;4990334;28;20097;-42
2022/05/17 02:49:40;;;;;;;11.80;4.43;;;13.70;99.90;;;;;;4988053;28;20531;-44
2022/05/17 02:52:06;;;;;;;8.57;4.20;;;13.60;99.90;;;;;;4991416;28;20049;-45
2022/05/17 02:54:32;;;;;;;8.23;4.40;;;13.60;99.90;;;;;;4990224;28;20046;-49
2022/05/17 02:56:58;;;;;;;8.68;3.25;;;13.50;99.90;;;;;;4986647;28;20123;-50
2022/05/17 02:59:24;;;;;;;12.20;4.38;;;13.50;99.90;;;;;;4985347;28;20121;-49
2022/05/17 03:01:50;;;;;;;14.80;4.47;;;13.50;99.90;;;;;;4988591;28;20113;-50
2022/05/17 03:04:15;;;;;;;11.77;3.83;;;13.50;99.90;;;;;;4974787;28;20084;-49
2022/05/17 03:06:43;;;;;;;9.30;3.95;;;13.50;99.90;;;;;;4989901;28;20049;-47
2022/05/17 03:09:09;;;;;;;9.15;4.47;;;13.40;99.90;;;;;;4990681;28;20046;-48
2022/05/17 03:11:36;;;;;;;7.00;3.40;;;13.40;99.90;;;;;;4987791;28;20076;-50
2022/05/17 03:14:02;;;;;;;10.02;3.88;;;13.40;99.90;;;;;;4987426;28;20518;-46
2022/05/17 03:16:30;;;;;;;7.68;3.13;;;13.30;99.90;;;;;;4992033;28;20041;-50
2022/05/17 03:18:57;;;;;;;9.82;3.83;;;13.40;99.90;;;;;;4989633;28;20060;-46
2022/05/17 03:21:22;;;;;;;7.05;3.17;;;13.40;99.90;;;;;;4982546;28;20133;-51
2022/05/17 03:23:48;;;;;;;8.02;3.65;;;13.40;99.90;;;;;;4986789;28;20500;-50
2022/05/17 03:26:14;;;;;;;5.88;3.10;;;13.40;99.90;;;;;;4987082;28;20030;-47
2022/05/17 03:28:39;;;;;;;8.77;3.95;;;13.30;99.90;;;;;;4988076;28;20026;-47
2022/05/17 03:31:09;;;;;;;6.45;3.55;;;13.30;99.90;;;;;;4988313;28;20039;-46
2022/05/17 03:33:35;;;;;;;7.55;3.60;;;13.30;99.90;;;;;;4986157;28;20088;-51
2022/05/17 03:36:00;;;;;;;10.57;4.57;;;13.30;99.90;;;;;;4991585;28;20038;-51
2022/05/17 03:38:26;;;;;;;11.20;3.38;;;13.20;99.90;;;;;;4991053;28;20104;-46
2022/05/17 03:40:54;;;;;;;11.48;4.50;;;13.20;99.90;;;;;;4985316;28;20031;-51
2022/05/17 03:43:20;;;;;;;7.78;3.90;;;13.20;99.90;;;;;;4986211;28;20153;-51
2022/05/17 03:45:47;;;;;;;8.25;4.18;;;13.20;99.90;;;;;;4988149;28;20637;-50
2022/05/17 03:48:13;;;;;;;9.45;4.40;;;13.20;99.90;;;;;;4972599;28;20038;-48
2022/05/17 03:50:39;;;;;;;7.65;3.63;;;13.10;99.90;;;;;;4986552;28;20495;-51
2022/05/17 03:53:05;;;;;;;10.50;4.38;;;13.10;99.90;;;;;;4986077;28;20041;-50
2022/05/17 03:55:31;;;;;;;14.57;4.68;;;13.10;99.90;;;;;;4987854;28;20117;-51
2022/05/17 03:57:57;;;;;;;10.75;4.53;;;13.10;99.90;;;;;;4986254;28;20137;-50
2022/05/17 04:00:22;;;;;;;9.65;3.80;;;13.10;99.90;;;;;;4987521;28;20057;-51
2022/05/17 04:02:49;;;;;;;7.40;3.10;;;13.10;99.90;;;;;;4984995;28;20043;-51
2022/05/17 04:05:16;;;;;;;11.50;3.85;;;13.20;99.90;;;;;;4987773;28;20121;-44
2022/05/17 04:07:41;;;;;;;8.32;3.97;;;13.20;99.90;;;;;;4987532;28;20039;-47
2022/05/17 04:10:09;;;;;;;11.23;4.18;;;13.30;99.90;;;;;;4988672;28;20486;-51
2022/05/17 04:12:35;;;;;;;7.78;3.53;;;13.30;99.90;;;;;;4968814;28;20057;-51
2022/05/17 04:15:01;;;;;;;5.90;3.17;;;13.30;99.90;;;;;;4988924;28;20396;-50
2022/05/17 04:17:27;;;;;;;10.45;3.55;;;13.40;99.90;;;;;;4984290;28;20085;-49
2022/05/17 04:19:53;;;;;;;7.93;3.22;;;13.40;99.90;;;;;;4971827;28;20050;-50
2022/05/17 04:22:18;;;;;;;8.40;3.40;;;13.50;99.90;;;;;;4985718;28;20129;-51
2022/05/17 04:24:45;;;;;;;7.82;3.60;;;13.50;99.90;;;;;;4987330;28;20046;-50
2022/05/17 04:27:12;;;;;;;8.57;4.07;;;13.50;99.90;;;;;;4985183;28;20037;-51
2022/05/17 04:29:38;;;;;;;10.68;4.03;;;13.50;99.90;;;;;;4986464;28;20133;-52
2022/05/17 04:32:04;;;;;;;8.30;3.78;;;13.60;99.90;;;;;;4985861;28;20132;-51
2022/05/17 04:34:31;;;;;;;11.30;3.45;;;13.70;99.90;;;;;;4988095;28;20038;-48
2022/05/17 04:36:57;;;;;;;9.23;3.33;;;13.90;99.90;;;;;;4972926;28;20074;-51
2022/05/17 04:39:24;;;;;;;8.45;3.60;;;13.90;99.90;;;;;;4975429;28;20093;-50
2022/05/17 04:41:50;;;;;;;10.50;3.67;;;13.90;99.90;;;;;;4968763;28;20046;-49
2022/05/17 04:44:16;;;;;;;10.80;4.03;;;14.00;99.90;;;;;;4968733;28;20050;-51
2022/05/17 04:46:42;;;;;;;8.73;3.85;;;14.10;99.90;;;;;;4987377;28;20050;-49
2022/05/17 04:49:08;;;;;;;10.52;3.97;;;14.20;99.90;;;;;;4983658;28;20092;-46
2022/05/17 04:51:34;;;;;;;7.32;3.45;;;14.20;99.90;;;;;;4969238;28;20415;-52
2022/05/17 04:54:00;;;;;;;9.23;3.60;;;14.30;99.90;;;;;;4953890;28;20038;-50
2022/05/17 04:56:26;;;;;;;10.77;3.95;;;14.30;99.90;;;;;;4986640;28;20038;-48
2022/05/17 04:58:52;;;;;;;11.15;4.32;;;14.30;99.90;;;;;;4988876;28;20054;-48
2022/05/17 05:01:17;;;;;;;9.05;3.58;;;14.30;99.90;;;;;;4987419;28;20104;-49
2022/05/17 05:03:43;;;;;;;8.88;4.18;;;14.30;99.90;;;;;;4988279;28;20514;-52
2022/05/17 05:06:09;;;;;;;8.35;3.42;;;14.40;99.90;;;;;;4990590;28;20026;-51
2022/05/17 05:08:34;;;;;;;7.38;3.10;;;14.40;99.90;;;;;;4985319;28;20031;-50
2022/05/17 05:11:00;;;;;;;10.05;3.63;;;14.40;99.90;;;;;;4981675;28;20388;-51
2022/05/17 05:13:26;;;;;;;10.00;3.72;;;14.50;99.90;;;;;;4969440;28;20048;-50
2022/05/17 05:15:54;;;;;;;9.82;4.20;;;14.50;99.90;;;;;;4964679;28;20050;-48
2022/05/17 05:18:19;;;;;;;7.03;3.45;;;14.50;99.90;;;;;;4985092;28;20046;-48
2022/05/17 05:20:45;;;;;;;9.35;3.70;;;14.60;99.90;;;;;;4985784;28;20054;-51
2022/05/17 05:23:11;;;;;;;13.10;4.63;;;14.60;99.90;;;;;;4987047;28;20157;-51
2022/05/17 05:25:37;;;;;;;8.77;3.55;;;14.60;99.90;;;;;;4986158;28;20030;-49
2022/05/17 05:28:05;;;;;;;14.02;4.28;;;14.60;99.90;;;;;;4981737;28;20070;-51
2022/05/17 05:30:31;;;;;;;10.50;3.97;;;14.70;99.90;;;;;;4965394;28;20046;-48
2022/05/17 05:32:57;;;;;;;9.65;3.72;;;14.70;99.90;;;;;;4988533;28;20080;-50
2022/05/17 05:35:25;;;;;;;9.13;3.92;;;14.80;99.90;;;;;;4985554;28;20038;-50
2022/05/17 05:37:52;;;;;;;16.85;4.05;;;14.80;99.90;;;;;;4986712;28;20038;-42
2022/05/17 05:40:18;;;;;;;12.05;4.00;;;14.80;99.90;;;;;;4966675;28;20050;-50
2022/05/17 05:42:44;;;;;;;10.23;3.65;;;14.90;99.90;;;;;;4986115;28;20053;-48
2022/05/17 05:45:11;;;;;;;9.55;4.15;;;14.90;99.90;;;;;;4967102;28;20030;-50
2022/05/17 05:47:36;;;;;;;8.98;3.65;;;15.00;99.90;;;;;;4980884;28;20053;-49
2022/05/17 05:50:03;;;;;;;6.65;3.72;;;15.00;99.90;;;;;;4984836;28;20472;-48
2022/05/17 05:52:29;;;;;;;10.45;3.97;;;15.10;99.90;;;;;;4983223;28;20065;-49
2022/05/17 05:54:55;;;;;;;10.20;3.28;;;15.10;99.90;;;;;;4983850;28;20042;-46
2022/05/17 05:57:21;;;;;;;11.23;3.92;;;15.10;99.90;;;;;;4986368;28;20507;-46
2022/05/17 05:59:46;;;;;;;8.75;4.03;;;15.10;99.90;;;;;;4984180;28;20108;-47
2022/05/17 06:02:12;;;;;;;7.57;3.30;;;15.20;99.90;;;;;;4968083;28;20566;-47
2022/05/17 06:04:38;;;;;;;14.75;4.10;;;15.20;99.90;;;;;;4983370;28;20046;-49
2022/05/17 06:07:05;;;;;;;10.02;3.78;;;15.30;99.90;;;;;;4983017;28;20049;-49
2022/05/17 06:09:31;;;;;;;11.40;4.47;;;15.30;99.90;;;;;;4986003;28;20039;-44
2022/05/17 06:11:57;;;;;;;9.82;3.88;;;15.40;99.90;;;;;;4982161;28;20034;-44
2022/05/17 06:14:23;;;;;;;10.65;3.60;;;15.40;99.90;;;;;;4981640;28;20065;-48
2022/05/17 06:16:50;;;;;;;13.05;4.43;;;15.50;99.90;;;;;;4979295;28;20042;-46
2022/05/17 06:19:17;;;;;;;11.13;3.95;;;15.60;99.90;;;;;;4980026;28;20042;-47
2022/05/17 06:21:42;;;;;;;10.13;3.78;;;15.60;99.90;;;;;;4985162;28;20583;-49
2022/05/17 06:24:08;;;;;;;9.95;3.95;;;15.60;99.90;;;;;;4986011;28;20097;-49
2022/05/17 06:26:34;;;;;;;9.27;3.03;;;15.70;99.90;;;;;;4983683;28;20158;-50
2022/05/17 06:29:00;;;;;;;9.23;3.60;;;15.80;99.90;;;;;;4965348;28;20078;-49
2022/05/17 06:31:26;;;;;;;6.15;2.85;;;15.90;99.90;;;;;;4981672;28;20030;-50
2022/05/17 06:33:52;;;;;;;14.38;3.50;;;16.00;99.90;;;;;;4987876;28;20122;-46
2022/05/17 06:36:17;;;;;;;10.18;2.97;;;16.10;99.90;;;;;;4967191;28;20042;-50
2022/05/17 06:38:43;;;;;;;8.52;2.55;;;16.20;99.90;;;;;;4984564;28;20061;-44
2022/05/17 06:41:09;;;;;;;7.15;2.50;;;16.30;99.90;;;;;;4983524;28;20039;-48
2022/05/17 06:43:34;;;;;;;6.18;2.45;;;16.60;99.90;;;;;;4987769;28;20474;-50
2022/05/17 06:46:01;;;;;;;10.05;2.50;;;16.70;99.90;;;;;;4990077;28;20407;-47
2022/05/17 06:48:28;;;;;;;8.10;2.55;;;17.00;99.90;;;;;;4984044;28;20031;-47
2022/05/17 06:50:54;;;;;;;6.65;2.20;;;17.10;99.90;;;;;;4986563;28;20372;-46
2022/05/17 06:53:20;;;;;;;7.50;2.20;;;17.20;99.90;;;;;;4988562;28;20085;-48
2022/05/17 06:55:45;;;;;;;8.13;2.30;;;17.30;99.90;;;;;;4988431;28;20046;-48
2022/05/17 06:58:11;;;;;;;7.63;2.05;;;17.40;99.90;;;;;;4986846;28;20112;-46
2022/05/17 07:00:37;;;;;;;5.32;1.77;;;17.50;99.90;;;;;;4981276;28;20042;-48
2022/05/17 07:03:03;;;;;;;8.93;2.17;;;17.50;99.90;;;;;;4990114;28;20081;-44
2022/05/17 07:05:29;;;;;;;8.27;3.10;;;17.60;99.90;;;;;;4988470;28;20066;-45
2022/05/17 07:08:00;;;;;;;8.15;2.30;;;17.70;99.90;;;;;;4988968;28;20038;-46
2022/05/17 07:13:13;;;;;;;8.82;2.47;;;17.80;99.90;;;;;;4988339;28;20484;-46
2022/05/17 07:15:45;;;;;;;8.30;1.90;;;17.90;99.90;;;;;;4987666;28;20389;-46
2022/05/17 07:18:12;;;;;;;7.93;2.17;;;18.00;99.90;;;;;;4989871;28;20121;-46
2022/05/17 07:20:38;;;;;;;6.45;3.00;;;18.10;99.90;;;;;;4990040;28;20042;-47
2022/05/17 07:23:04;;;;;;;8.02;2.53;;;18.20;99.90;;;;;;4991923;28;20050;-47
2022/05/17 07:25:34;;;;;;;9.43;2.63;;;18.30;99.90;;;;;;4986732;28;20046;-45
2022/05/17 07:28:00;;;;;;;8.20;2.30;;;18.50;99.90;;;;;;4986075;28;20042;-46
2022/05/17 07:30:27;;;;;;;8.40;2.58;;;18.60;99.90;;;;;;4980453;28;20133;-44
2022/05/17 07:32:52;;;;;;;6.63;2.17;;;18.70;99.90;;;;;;4987882;28;20485;-48
2022/05/17 07:35:18;;;;;;;6.72;2.03;;;18.70;99.90;;;;;;4986154;28;20125;-46
2022/05/17 07:37:44;;;;;;;10.18;2.25;;;18.90;99.90;;;;;;4970492;28;20074;-49
2022/05/17 07:40:12;;;;;;;11.18;2.15;;;19.10;99.90;;;;;;4988552;28;20129;-46
2022/05/17 07:42:40;;;;;;;7.05;1.67;;;19.10;99.90;;;;;;4986415;28;20475;-45
2022/05/17 07:45:07;;;;;;;6.07;1.45;;;19.10;99.90;;;;;;4987435;28;20492;-46
2022/05/17 07:47:33;;;;;;;9.07;1.70;;;19.20;99.90;;;;;;4990218;28;20038;-46
2022/05/17 07:49:59;;;;;;;7.22;1.88;;;19.40;99.90;;;;;;4971679;28;20045;-49
2022/05/17 07:52:25;;;;;;;7.53;1.55;;;19.50;99.90;;;;;;4988966;28;20065;-48
2022/05/17 07:54:51;;;;;;;5.90;1.60;;;19.50;99.90;;;;;;4973420;28;20046;-50
2022/05/17 07:57:17;;;;;;;9.30;2.10;;;19.40;99.90;;;;;;4984843;28;20340;-50
2022/05/17 07:59:43;;;;;;;7.18;1.67;;;19.50;99.90;;;;;;4972513;28;20061;-51
2022/05/17 08:02:09;;;;;;;6.18;1.48;;;19.60;99.90;;;;;;4989221;28;20117;-46
2022/05/17 08:04:36;;;;;;;7.78;2.10;;;19.70;99.80;;;;;;4989599;28;20074;-51
2022/05/17 08:07:02;;;;;;;8.98;1.70;;;19.70;99.10;;;;;;4990040;28;20116;-47
2022/05/17 08:09:28;;;;;;;8.52;2.13;;;19.80;99.00;;;;;;4990381;28;20480;-49
2022/05/17 08:11:54;;;;;;;7.78;1.30;;;19.90;98.60;;;;;;4989960;28;20042;-45
2022/05/17 08:14:20;;;;;;;5.22;1.52;;;19.90;98.20;;;;;;4988649;28;20487;-49
2022/05/17 08:16:46;;;;;;;6.22;1.40;;;20.00;97.70;;;;;;4989903;28;20046;-47
2022/05/17 08:19:12;;;;;;;6.60;1.10;;;20.00;96.70;;;;;;4974735;28;20041;-45
2022/05/17 08:21:38;;;;;;;6.50;1.42;;;20.00;96.00;;;;;;4987141;28;20065;-49
2022/05/17 08:24:04;;;;;;;6.18;1.77;;;20.00;95.60;;;;;;4989603;28;20053;-47
2022/05/17 08:29:14;;;;;;;6.00;1.20;;;20.20;95.20;;;;;;4987715;28;20077;-50
2022/05/17 08:31:40;;;;;;;6.95;1.75;;;20.40;94.60;;;;;;4988561;28;20460;-48
2022/05/17 08:34:08;;;;;;;5.35;1.08;;;20.40;94.10;;;;;;4969642;28;20102;-50
2022/05/17 08:36:34;;;;;;;5.20;1.00;;;20.60;93.60;;;;;;4990968;28;20137;-47
2022/05/17 08:39:00;;;;;;;6.68;1.13;;;20.80;92.80;;;;;;4989681;28;20034;-49
2022/05/17 08:41:36;;;;;;;8.88;1.50;;;20.80;92.50;;;;;;4987566;28;20521;-49
2022/05/17 08:44:13;;;;;;;8.10;1.20;;;20.90;92.60;;;;;;4986512;28;20041;-49
2022/05/17 08:46:56;;;;;;;5.38;1.10;;;20.90;92.20;;;;;;4985778;28;20069;-50
2022/05/17 08:49:26;;;;;;;3.92;1.30;;;20.90;91.90;;;;;;4965872;28;20043;-46
2022/05/17 08:51:57;;;;;;;5.47;1.10;;;20.80;91.60;;;;;;4987061;28;20527;-46
2022/05/17 08:55:06;;;;;;;8.18;1.35;;;20.80;91.40;;;;;;4988911;28;20117;-49
2022/05/17 08:57:39;;;;;;;8.73;1.60;;;20.90;89.70;;;;;;4983322;28;20038;-50
2022/05/17 09:00:18;;;;;;;8.15;1.50;;;20.80;91.10;;;;;;4988227;28;20070;-50
2022/05/17 09:02:50;;;;;;;10.55;1.80;;;20.70;90.40;;;;;;4990563;28;20046;-48
2022/05/17 09:05:36;;;;;;;6.22;1.00;;;20.70;91.40;;;;;;4985306;28;20034;-47
2022/05/17 09:08:25;;;;;;;4.20;1.08;;;20.60;91.30;;;;;;4985857;28;20083;-47
2022/05/17 09:10:59;;;;;;;5.47;1.20;;;20.60;90.10;;;;;;4987520;28;20081;-47
2022/05/17 09:13:53;;;;;;;4.75;0.95;;;20.60;90.50;;;;;;4990684;28;20465;-49
2022/05/17 09:16:21;;;;;;;5.53;1.38;;;20.60;89.60;;;;;;4982595;28;21001;-50
2022/05/17 09:18:48;;;;;;;7.18;1.23;;;20.70;91.00;;;;;;4985581;28;20555;-47
2022/05/17 09:21:42;;;;;;;5.30;1.00;;;20.80;90.70;;;;;;4987531;28;20092;-46
2022/05/17 09:24:13;;;;;;;5.45;1.38;;;21.00;90.40;;;;;;4983812;28;20388;-49
2022/05/17 09:26:49;;;;;;;6.43;1.30;;;21.10;90.40;;;;;;4985874;28;20053;-48
2022/05/17 09:29:19;;;;;;;7.15;1.50;;;21.10;90.40;;;;;;4982154;28;20077;-44
2022/05/17 09:32:00;;;;;;;4.78;1.10;;;21.10;90.50;;;;;;4982889;28;20138;-49
2022/05/17 09:34:39;;;;;;;6.25;1.33;;;21.10;90.20;;;;;;4987259;28;20795;-50
2022/05/17 09:37:09;;;;;;;6.72;1.63;;;21.10;90.00;;;;;;4983622;28;20109;-49
2022/05/17 09:39:35;;;;;;;6.45;1.20;;;21.20;90.10;;;;;;4986443;28;20061;-47
2022/05/17 09:42:04;;;;;;;7.88;1.52;;;21.20;90.50;;;;;;4969610;28;20100;-50
2022/05/17 09:44:30;;;;;;;7.38;1.35;;;21.10;90.40;;;;;;4981837;28;20391;-48
2022/05/17 09:46:59;;;;;;;5.18;1.38;;;21.00;90.70;;;;;;4967804;28;20042;-48
2022/05/17 09:52:42;;;;;;;5.97;1.60;;;21.10;90.70;;;;;;4985842;28;20048;-47
2022/05/17 09:55:30;;;;;;;7.28;1.40;;;21.10;90.10;;;;;;4970826;28;20026;-49
2022/05/17 09:58:02;;;;;;;5.88;1.70;;;21.10;89.10;;;;;;4985156;28;20034;-49
2022/05/17 10:00:41;;;;;;;8.10;1.83;;;21.10;90.10;;;;;;4988656;28;20070;-48
2022/05/17 10:03:16;;;;;;;4.40;1.17;;;21.00;89.70;;;;;;4983638;28;20105;-50
2022/05/17 10:06:03;;;;;;;6.80;1.42;;;21.00;88.90;;;;;;4985181;28;20058;-47
2022/05/17 10:08:47;;;;;;;11.50;1.73;;;21.20;88.40;;;;;;4982154;28;20109;-49
2022/05/17 10:11:17;;;;;;;5.85;1.65;;;21.20;88.40;;;;;;4969732;28;20427;-50
2022/05/17 10:13:45;;;;;;;7.05;1.88;;;21.20;88.70;;;;;;4986706;28;20050;-46
2022/05/17 10:16:42;;;;;;;7.80;2.25;;;21.40;88.50;;;;;;4988762;28;20050;-45
2022/05/17 10:19:48;;;;;;;5.28;1.58;;;21.40;86.30;;;;;;4992334;28;20085;-50
2022/05/17 10:22:36;;;;;;;9.32;1.40;;;21.40;85.10;;;;;;4982175;28;20081;-48
2022/05/17 10:25:06;;;;;;;7.72;2.05;;;21.40;85.50;;;;;;4987806;28;20100;-47
2022/05/17 10:27:41;;;;;;;11.20;2.17;;;21.40;84.30;;;;;;4989061;28;20057;-49
2022/05/17 10:30:11;;;;;;;6.93;1.85;;;21.40;85.50;;;;;;4970849;28;20499;-46
2022/05/17 10:32:46;;;;;;;6.32;1.58;;;21.50;85.30;;;;;;4987795;28;20118;-51
2022/05/17 10:35:39;;;;;;;6.38;1.55;;;21.50;84.40;;;;;;4989112;28;20061;-49
2022/05/17 10:38:34;;;;;;;6.85;1.85;;;21.50;81.90;;;;;;4987500;28;20042;-45
2022/05/17 10:41:07;;;;;;;6.50;1.42;;;21.50;82.30;;;;;;4986588;28;20469;-47
2022/05/17 10:43:37;;;;;;;6.90;1.65;;;21.50;82.80;;;;;;4973444;28;20336;-47
2022/05/17 10:46:06;;;;;;;5.85;1.88;;;21.60;82.00;;;;;;4973505;28;20046;-50
2022/05/17 10:48:53;;;;;;;5.95;1.58;;;21.50;82.70;;;;;;4990826;28;20492;-47
2022/05/17 10:51:46;;;;;;;8.27;1.98;;;21.50;80.50;;;;;;4989694;28;20050;-50
2022/05/17 10:54:36;;;;;;;7.30;1.98;;;21.50;79.60;;;;;;4992122;28;20034;-50
2022/05/17 10:57:23;;;;;;;6.90;1.98;;;21.50;78.20;;;;;;4959686;28;20046;-47
2022/05/17 10:59:54;;;;;;;7.13;2.25;;;21.50;79.50;;;;;;4987823;28;20061;-47
2022/05/17 11:02:39;;;;;;;5.63;2.03;;;21.50;81.90;;;;;;4986530;28;20050;-48
2022/05/17 11:05:22;;;;;;;7.80;2.58;;;21.40;82.70;;;;;;4967748;28;20054;-45
2022/05/17 11:07:56;;;;;;;7.65;3.00;;;21.40;85.90;;;;;;4987917;28;20034;-49
2022/05/17 11:11:07;;;;;;;8.20;2.95;;;21.20;87.50;;;;;;4989780;28;20044;-49
2022/05/17 11:13:51;;;;;;;9.20;2.78;;;21.00;90.30;;;;;;4945495;28;20097;-50
2022/05/17 11:16:24;;;;;;;10.98;3.03;;;20.80;91.10;;;;;;4990636;28;20046;-48
2022/05/17 11:19:05;;;;;;;8.55;2.78;;;20.70;91.30;;;;;;4991848;28;20076;-47
2022/05/17 11:21:39;;;;;;;7.93;3.17;;;20.60;91.70;;;;;;4989876;28;20065;-50
2022/05/17 11:24:42;;;;;;;8.13;2.42;;;20.60;92.20;;;;;;4986450;28;20437;-44
2022/05/17 11:27:54;;;;;;;8.90;2.15;;;20.40;93.10;;;;;;4987455;28;20042;-51
2022/05/17 11:30:42;;;;;;;6.30;1.90;;;20.30;94.10;;;;;;4925845;29;20102;-48
2022/05/17 11:33:23;;;;;;;9.52;1.98;;;20.30;93.60;;;;;;4992308;28;20042;-50
2022/05/17 11:35:57;;;;;;;8.77;1.98;;;20.40;94.00;;;;;;4988926;28;20476;-49
2022/05/17 11:38:34;;;;;;;7.28;2.60;;;20.50;93.50;;;;;;4972820;28;20364;-48
2022/05/17 11:41:02;;;;;;;5.50;1.67;;;20.60;92.70;;;;;;4988257;28;20038;-46
2022/05/17 11:43:42;;;;;;;7.18;2.13;;;20.70;92.30;;;;;;4990825;28;20027;-47
2022/05/17 11:46:37;;;;;;;5.80;1.80;;;20.90;91.20;;;;;;4986302;28;20039;-45
2022/05/17 11:49:11;;;;;;;5.03;2.10;;;21.20;90.50;;;;;;4988504;28;20097;-47
2022/05/17 11:51:58;;;;;;;8.52;2.05;;;21.50;89.80;;;;;;4984988;28;20073;-45
2022/05/17 11:54:45;;;;;;;7.95;2.67;;;21.70;88.60;;;;;;4989648;28;20392;-48
2022/05/17 11:57:32;;;;;;;4.78;1.65;;;22.00;85.60;;;;;;4967455;28;20069;-46
2022/05/17 12:00:04;;;;;;;7.07;2.38;;;22.30;82.40;;;;;;4976162;28;20058;-49
2022/05/17 12:02:53;;;;;;;10.18;2.05;;;22.50;83.70;;;;;;4987791;28;20468;-47
2022/05/17 12:05:43;;;;;;;10.23;2.30;;;22.70;77.60;;;;;;4986240;28;20038;-45
2022/05/17 12:08:35;;;;;;;11.18;2.40;;;22.70;77.80;;;;;;4986522;28;20038;-49
2022/05/17 12:11:09;;;;;;;10.55;2.30;;;22.80;76.40;;;;;;4983760;28;20524;-45
2022/05/17 12:13:53;;;;;;;10.85;2.83;;;22.80;76.70;;;;;;4987659;28;20332;-47
2022/05/17 12:16:26;;;;;;;9.63;2.45;;;22.80;75.40;;;;;;4990096;28;20130;-49
2022/05/17 12:18:53;;;;;;;6.97;2.53;;;22.80;76.60;;;;;;4989111;28;20046;-48
2022/05/17 12:21:39;;;;;;;12.32;2.10;;;23.00;76.00;;;;;;4981895;28;20372;-46
2022/05/17 12:24:36;;;;;;;8.73;2.85;;;23.10;75.30;;;;;;4987460;28;20042;-50
2022/05/17 12:27:24;;;;;;;9.43;2.13;;;23.50;70.10;;;;;;4969275;28;20062;-49
2022/05/17 12:32:44;;;;;;;5.68;2.17;;;23.70;69.40;;;;;;4987846;28;20042;-50
2022/05/17 12:35:10;;;;;;;6.10;2.40;;;23.80;70.40;;;;;;4991091;28;20045;-50
2022/05/17 12:37:44;;;;;;;7.03;2.92;;;23.90;70.40;;;;;;4983266;28;20129;-50
2022/05/17 12:43:02;;;;;;;6.43;2.53;;;24.50;68.90;;;;;;4989287;28;20042;-51
2022/05/17 12:45:32;;;;;;;8.23;2.63;;;24.50;66.50;;;;;;4981659;28;20118;-49
2022/05/17 12:48:01;;;;;;;7.82;2.55;;;24.40;67.50;;;;;;4983294;28;20097;-50
2022/05/17 12:50:50;;;;;;;7.45;2.70;;;24.60;66.10;;;;;;4984558;28;20047;-48
2022/05/17 12:53:29;;;;;;;9.18;2.42;;;24.80;65.30;;;;;;4982773;28;20507;-48
2022/05/17 12:56:29;;;;;;;8.88;2.60;;;25.00;62.30;;;;;;4986144;28;20120;-50
2022/05/17 12:59:04;;;;;;;5.40;1.60;;;25.20;60.80;;;;;;4988155;28;20137;-49
2022/05/17 13:01:36;;;;;;;4.70;2.03;;;25.30;60.50;;;;;;4992505;28;20395;-44
2022/05/17 13:04:12;;;;;;;8.02;2.67;;;25.50;59.20;;;;;;4966044;28;20052;-50
2022/05/17 13:06:48;;;;;;;7.00;2.60;;;25.60;59.40;;;;;;4989354;28;20042;-49
2022/05/17 13:09:23;;;;;;;6.05;2.90;;;25.50;59.00;;;;;;4984429;28;20526;-48
2022/05/17 13:11:53;;;;;;;6.78;2.45;;;25.40;59.40;;;;;;4985805;28;20396;-50
2022/05/17 13:14:27;;;;;;;4.53;2.10;;;25.40;61.20;;;;;;4987797;28;20034;-48
2022/05/17 13:17:02;;;;;;;7.05;2.55;;;25.40;59.20;;;;;;4985660;28;20154;-46
2022/05/17 13:19:28;;;;;;;5.90;2.90;;;25.30;60.70;;;;;;4981635;28;20085;-50
2022/05/17 13:21:54;;;;;;;5.53;2.30;;;25.30;61.10;;;;;;4983218;28;20035;-50